Time;durP1;ratioP1;P1;durP2;ratioP2;P2;SDS_P1;SDS_P2;PMS_P1;PMS_P2;Temp;Humidity;BMP_temperature;BMP_pressure;BME280_temperature;BME280_humidity;BME280_pressure;Samples;Min_cycle;Max_cycle;Signal;HPM_P1;HPM_P2
2023/07/13 00:00:41;;;;;;;;;3.00;1.33;;;;;22.45;81.51;101425.88;5078189;27;45604;-74
2023/07/13 00:03:06;;;;;;;;;1.00;1.00;;;;;22.43;82.01;101428.59;5078172;27;47420;-74
2023/07/13 00:05:32;;;;;;;;;4.67;2.00;;;;;22.42;82.01;101428.63;5077130;27;66560;-74
2023/07/13 00:07:57;;;;;;;;;2.67;1.00;;;;;22.41;82.04;101430.44;5078180;27;48399;-74
2023/07/13 00:10:23;;;;;;;;;1.00;1.00;;;;;22.40;82.06;101427.81;5077498;27;45342;-74
2023/07/13 00:12:48;;;;;;;;;1.00;1.00;;;;;22.41;82.97;101430.44;5077069;28;45855;-73
2023/07/13 00:15:22;;;;;;;;;0.00;0.00;;;;;22.38;82.61;101435.03;5078075;27;45388;-73
2023/07/13 00:17:49;;;;;;;;;3.00;1.00;;;;;22.36;82.84;101436.88;5076332;28;45368;-75
2023/07/13 00:20:14;;;;;;;;;1.00;1.00;;;;;22.36;83.00;101442.25;5077166;28;45349;-75
2023/07/13 00:22:40;;;;;;;;;2.33;1.67;;;;;22.32;83.60;101432.50;5076717;27;72279;-75
2023/07/13 00:25:05;;;;;;;;;1.67;1.67;;;;;22.33;83.93;101436.97;5077923;27;45263;-73
2023/07/13 00:27:31;;;;;;;;;2.00;2.00;;;;;22.34;84.06;101434.25;5078189;27;45564;-73
2023/07/13 00:29:57;;;;;;;;;4.00;1.00;;;;;22.37;84.09;101439.56;5073273;28;45141;-76
2023/07/13 00:32:25;;;;;;;;;1.67;1.67;;;;;22.33;84.56;101439.69;5071850;27;47053;-73
2023/07/13 00:34:50;;;;;;;;;3.00;1.33;;;;;22.32;84.43;101437.88;5070493;28;45432;-74
2023/07/13 00:37:15;;;;;;;;;2.00;2.00;;;;;22.31;84.90;101441.50;5075464;27;45424;-73
2023/07/13 00:39:41;;;;;;;;;1.67;1.67;;;;;22.30;85.44;101437.94;5075966;28;55279;-75
2023/07/13 00:42:06;;;;;;;;;3.67;2.00;;;;;22.25;85.17;101439.88;5075092;28;68676;-74
2023/07/13 00:44:32;;;;;;;;;2.00;2.00;;;;;22.27;85.22;101446.09;5077659;27;53749;-73
2023/07/13 00:46:58;;;;;;;;;3.00;1.33;;;;;22.23;85.61;101448.00;5076001;27;45362;-74
2023/07/13 00:49:25;;;;;;;;;3.00;1.00;;;;;22.27;85.66;101439.84;5074471;27;45339;-74
2023/07/13 00:51:56;;;;;;;;;4.00;2.00;;;;;22.25;86.15;101445.25;5077181;27;47715;-75
2023/07/13 00:54:25;;;;;;;;;2.00;1.00;;;;;22.28;86.14;101452.38;5075816;28;45596;-75
2023/07/13 00:56:54;;;;;;;;;2.00;2.00;;;;;22.25;86.39;101445.25;5075133;28;45508;-74
2023/07/13 00:59:21;;;;;;;;;3.33;2.00;;;;;22.25;86.32;101453.31;5076391;27;45545;-75
2023/07/13 01:01:47;;;;;;;;;2.00;2.00;;;;;22.21;86.41;101457.00;5076440;27;45847;-74
2023/07/13 01:04:14;;;;;;;;;1.33;0.33;;;;;22.22;86.71;101458.81;5072755;28;45394;-74
2023/07/13 01:06:40;;;;;;;;;1.00;1.00;;;;;22.15;87.29;101455.38;5069991;27;45539;-75
2023/07/13 01:09:07;;;;;;;;;3.00;1.00;;;;;22.15;86.77;101466.13;5079561;27;45404;-73
2023/07/13 01:11:32;;;;;;;;;1.00;1.00;;;;;22.14;87.61;101463.50;5072661;28;46564;-74
2023/07/13 01:13:58;;;;;;;;;0.00;0.00;;;;;22.10;87.80;101464.47;5076295;27;58997;-74
2023/07/13 01:16:32;;;;;;;;;1.33;1.33;;;;;22.10;87.14;101465.38;5076300;27;64483;-74
2023/07/13 01:18:58;;;;;;;;;2.67;1.00;;;;;22.10;87.42;101468.06;5076870;27;45399;-73
2023/07/13 01:21:24;;;;;;;;;1.33;1.33;;;;;22.10;87.35;101475.22;5076160;27;47206;-74
2023/07/13 01:23:50;;;;;;;;;2.00;2.00;;;;;22.06;87.52;101465.50;5076740;27;45505;-74
2023/07/13 01:26:15;;;;;;;;;1.00;1.00;;;;;22.03;87.45;101455.69;5076434;27;63878;-73
2023/07/13 01:28:40;;;;;;;;;1.00;1.00;;;;;22.05;87.64;101464.59;5076908;27;45443;-74
2023/07/13 01:31:06;;;;;;;;;1.00;1.00;;;;;22.01;87.96;101468.28;5076471;27;46686;-75
2023/07/13 01:33:31;;;;;;;;;1.00;1.00;;;;;21.98;88.07;101473.75;5075769;27;45456;-74
2023/07/13 01:35:59;;;;;;;;;4.00;2.00;;;;;21.97;87.81;101470.16;5064396;27;56446;-73
2023/07/13 01:38:25;;;;;;;;;2.00;0.67;;;;;21.97;87.97;101471.97;5070133;28;45526;-74
2023/07/13 01:40:52;;;;;;;;;1.00;1.00;;;;;21.98;87.81;101476.44;5073751;27;45684;-74
2023/07/13 01:43:18;;;;;;;;;1.00;1.00;;;;;21.96;87.93;101481.84;5076452;28;45321;-73
2023/07/13 01:45:43;;;;;;;;;2.00;2.00;;;;;21.95;87.82;101473.84;5076168;27;45481;-74
2023/07/13 01:48:09;;;;;;;;;2.67;1.00;;;;;21.89;87.43;101480.25;5075675;28;46502;-73
2023/07/13 01:50:35;;;;;;;;;1.67;1.00;;;;;21.80;87.21;101485.84;5075940;27;46285;-75
2023/07/13 01:53:00;;;;;;;;;1.67;1.00;;;;;21.66;88.33;101475.44;5071582;27;45499;-74
2023/07/13 01:55:25;;;;;;;;;2.67;1.67;;;;;21.59;88.39;101479.19;5076369;27;45288;-74
2023/07/13 01:57:51;;;;;;;;;2.33;1.00;;;;;21.55;88.70;101473.94;5075696;28;63947;-74
2023/07/13 02:00:16;;;;;;;;;1.00;1.00;;;;;21.53;88.45;101475.78;5075325;27;68009;-74
2023/07/13 02:02:42;;;;;;;;;3.33;1.00;;;;;21.48;88.80;101470.53;5076191;27;45332;-74
2023/07/13 02:05:08;;;;;;;;;1.00;1.00;;;;;21.49;89.59;101468.72;5076174;27;45449;-74
2023/07/13 02:07:33;;;;;;;;;1.00;1.00;;;;;21.48;89.49;101472.34;5076458;27;45463;-74
2023/07/13 02:09:58;;;;;;;;;1.00;1.00;;;;;21.47;89.96;101481.31;5070054;28;71820;-73
2023/07/13 02:12:24;;;;;;;;;0.67;0.67;;;;;21.44;89.63;101482.25;5075444;27;64570;-74
2023/07/13 02:14:49;;;;;;;;;1.00;1.00;;;;;21.44;89.83;101483.13;5075922;27;59464;-73
2023/07/13 02:17:15;;;;;;;;;2.00;1.00;;;;;21.43;89.57;101478.69;5076431;27;45403;-74
2023/07/13 02:19:40;;;;;;;;;1.00;1.00;;;;;21.40;89.49;101481.44;5074608;27;46110;-73
2023/07/13 02:22:05;;;;;;;;;1.67;1.67;;;;;21.39;89.51;101468.94;5076037;28;45337;-74
2023/07/13 02:24:31;;;;;;;;;4.33;0.67;;;;;21.40;90.19;101470.69;5075416;27;63088;-74
2023/07/13 02:26:56;;;;;;;;;2.00;0.33;;;;;21.43;89.86;101483.19;5075100;27;61021;-74
2023/07/13 02:29:22;;;;;;;;;1.00;1.00;;;;;21.40;89.58;101476.06;5076061;27;47243;-74
2023/07/13 02:31:48;;;;;;;;;1.00;1.00;;;;;21.32;89.56;101475.38;5076131;28;66141;-73
2023/07/13 02:34:13;;;;;;;;;2.00;1.00;;;;;21.29;89.27;101477.19;5079907;27;45194;-73
2023/07/13 02:36:38;;;;;;;;;1.00;1.00;;;;;21.24;89.65;101471.06;5073875;27;62411;-74
2023/07/13 02:39:05;;;;;;;;;3.00;1.00;;;;;21.21;90.09;101488.13;5079207;28;50783;-74
2023/07/13 02:41:31;;;;;;;;;2.33;1.00;;;;;21.14;89.83;101478.44;5079180;27;45319;-74
2023/07/13 02:44:03;;;;;;;;;1.33;1.00;;;;;21.06;90.14;101478.59;5077294;28;45378;-73
2023/07/13 02:46:32;;;;;;;;;3.00;1.00;;;;;21.00;90.35;101469.81;5079567;27;45644;-74
2023/07/13 02:48:58;;;;;;;;;0.67;0.67;;;;;20.98;90.72;101472.50;5079590;28;46379;-74
2023/07/13 02:51:23;;;;;;;;;1.00;1.00;;;;;20.97;90.89;101475.25;5079428;27;45484;-73
2023/07/13 02:53:49;;;;;;;;;0.33;0.33;;;;;20.99;90.63;101470.75;5078484;27;55595;-74
2023/07/13 02:56:14;;;;;;;;;1.00;1.00;;;;;20.99;90.32;101470.75;5078961;27;62290;-73
2023/07/13 02:58:39;;;;;;;;;1.00;0.67;;;;;21.00;90.50;101476.06;5078513;27;67079;-73
2023/07/13 03:01:09;;;;;;;;;2.00;1.00;;;;;21.02;90.82;101484.06;5078623;27;68971;-74
2023/07/13 03:03:34;;;;;;;;;2.67;1.00;;;;;21.06;90.25;101475.03;5077950;27;45460;-73
2023/07/13 03:06:02;;;;;;;;;1.00;0.00;;;;;21.03;89.90;101470.59;5078795;27;62211;-75
2023/07/13 03:08:27;;;;;;;;;2.67;1.00;;;;;21.04;90.11;101476.84;5080896;27;46513;-73
2023/07/13 03:11:00;;;;;;;;;2.00;1.00;;;;;21.04;90.16;101476.84;5077994;27;53506;-76
2023/07/13 03:13:25;;;;;;;;;1.00;1.00;;;;;21.02;90.37;101479.59;5079342;27;45441;-74
2023/07/13 03:15:51;;;;;;;;;3.00;1.00;;;;;20.99;89.98;101479.69;5078282;27;54204;-74
2023/07/13 03:18:16;;;;;;;;;1.00;1.00;;;;;21.01;89.91;101479.63;5078361;27;69345;-74
2023/07/13 03:20:41;;;;;;;;;2.00;1.00;;;;;20.97;89.65;101480.59;5077429;27;65773;-73
2023/07/13 03:23:07;;;;;;;;;2.00;1.00;;;;;20.98;89.82;101485.06;5078240;27;62871;-74
2023/07/13 03:25:32;;;;;;;;;1.33;1.33;;;;;20.93;89.87;101485.16;5076474;28;64911;-74
2023/07/13 03:27:57;;;;;;;;;1.00;1.00;;;;;20.89;90.03;101491.53;5077405;27;45799;-73
2023/07/13 03:30:23;;;;;;;;;1.00;1.00;;;;;20.89;90.08;101486.16;5078545;27;49846;-75
2023/07/13 03:32:48;;;;;;;;;0.00;0.00;;;;;20.93;90.20;101490.50;5078485;27;45521;-74
2023/07/13 03:35:14;;;;;;;;;3.00;0.67;;;;;20.97;90.56;101488.66;5075625;27;61338;-74
2023/07/13 03:37:42;;;;;;;;;1.33;1.00;;;;;21.01;90.28;101496.63;5077661;27;57198;-73
2023/07/13 03:40:09;;;;;;;;;2.00;0.00;;;;;21.03;90.13;101500.16;5070425;28;45414;-73
2023/07/13 03:42:34;;;;;;;;;0.00;0.00;;;;;21.00;90.57;101494.88;5078357;27;45524;-73
2023/07/13 03:45:00;;;;;;;;;1.00;1.00;;;;;20.99;91.41;101497.59;5078430;27;45216;-74
2023/07/13 03:47:25;;;;;;;;;2.67;2.00;;;;;20.95;92.36;101495.88;5078228;27;46500;-74
2023/07/13 03:49:50;;;;;;;;;1.33;1.00;;;;;20.90;92.21;101501.34;5078279;27;45496;-74
2023/07/13 03:52:16;;;;;;;;;0.00;0.00;;;;;20.86;92.18;101494.25;5076391;27;45232;-75
2023/07/13 03:54:41;;;;;;;;;1.00;1.00;;;;;20.85;93.46;101504.13;5073287;28;62662;-74
2023/07/13 03:57:09;;;;;;;;;2.00;1.00;;;;;20.86;93.55;101505.00;5076623;27;65492;-74
2023/07/13 03:59:34;;;;;;;;;1.67;0.67;;;;;20.88;93.32;101497.81;5078296;27;45451;-74
2023/07/13 04:02:00;;;;;;;;;2.67;1.00;;;;;20.89;94.37;101500.47;5077835;27;61297;-74
2023/07/13 04:04:26;;;;;;;;;3.67;1.00;;;;;20.87;93.69;101502.28;5078072;27;45256;-74
2023/07/13 04:06:53;;;;;;;;;1.00;1.00;;;;;20.92;94.20;101504.88;5080052;27;68835;-74
2023/07/13 04:09:19;;;;;;;;;1.00;1.00;;;;;20.92;94.59;101504.88;5077280;27;45472;-74
2023/07/13 04:11:44;;;;;;;;;1.00;1.00;;;;;20.93;94.19;101509.31;5077904;28;45474;-74
2023/07/13 04:14:09;;;;;;;;;1.00;1.00;;;;;20.94;94.12;101513.78;5077738;27;63837;-75
2023/07/13 04:16:35;;;;;;;;;2.00;0.33;;;;;20.94;94.39;101516.47;5077037;27;67260;-73
2023/07/13 04:19:00;;;;;;;;;2.33;1.00;;;;;20.95;94.36;101512.00;5076731;27;67474;-74
2023/07/13 04:21:30;;;;;;;;;2.67;2.00;;;;;20.92;95.23;101513.78;5076933;27;45365;-74
2023/07/13 04:23:55;;;;;;;;;1.00;1.00;;;;;20.91;95.30;101525.47;5077807;27;45465;-74
2023/07/13 04:26:22;;;;;;;;;0.33;0.33;;;;;20.91;95.92;101533.50;5077105;27;46700;-74
2023/07/13 04:28:48;;;;;;;;;2.00;1.00;;;;;20.89;95.90;101530.00;5077622;27;45308;-74
2023/07/13 04:31:14;;;;;;;;;0.67;0.67;;;;;20.84;95.99;101531.88;5077984;27;45425;-74
2023/07/13 04:33:39;;;;;;;;;1.00;1.00;;;;;20.86;96.53;101538.09;5076516;28;45566;-74
2023/07/13 04:36:05;;;;;;;;;2.00;1.00;;;;;20.85;96.91;101547.06;5077037;27;47235;-74
2023/07/13 04:38:32;;;;;;;;;1.33;0.33;;;;;20.85;97.22;101540.81;5076863;27;45469;-74
2023/07/13 04:41:03;;;;;;;;;2.00;1.00;;;;;20.84;98.09;101549.78;5077649;27;45539;-74
2023/07/13 04:43:29;;;;;;;;;2.00;2.00;;;;;20.79;97.51;101549.88;5076833;27;45576;-74
2023/07/13 04:45:55;;;;;;;;;3.00;0.00;;;;;20.75;98.42;101540.09;5077196;27;46344;-74
2023/07/13 04:48:20;;;;;;;;;1.33;1.33;;;;;20.70;98.79;101530.38;5077657;27;45192;-74
2023/07/13 04:50:47;;;;;;;;;1.00;1.00;;;;;20.64;99.39;101526.91;5077224;27;45306;-74
2023/07/13 04:53:12;;;;;;;;;3.67;1.67;;;;;20.66;99.81;101534.91;5076522;27;45420;-74
2023/07/13 04:55:38;;;;;;;;;1.33;1.33;;;;;20.65;100.00;101543.88;5077079;27;47482;-73
2023/07/13 04:58:05;;;;;;;;;1.67;1.00;;;;;20.67;100.00;101536.72;5077190;27;45295;-75
2023/07/13 05:00:30;;;;;;;;;4.00;1.00;;;;;20.69;100.00;101534.88;5076857;27;45453;-74
2023/07/13 05:02:57;;;;;;;;;1.33;1.33;;;;;20.69;100.00;101544.72;5077050;27;45525;-74
2023/07/13 05:05:26;;;;;;;;;1.33;1.33;;;;;20.65;100.00;101544.75;5076858;28;47822;-73
2023/07/13 05:07:52;;;;;;;;;1.33;1.00;;;;;20.66;100.00;101540.28;5080515;27;45608;-74
2023/07/13 05:10:18;;;;;;;;;1.00;1.00;;;;;20.69;100.00;101548.28;5075438;28;45487;-76
2023/07/13 05:12:43;;;;;;;;;1.00;1.00;;;;;20.73;100.00;101547.31;5077044;27;45659;-74
2023/07/13 05:15:09;;;;;;;;;5.33;2.33;;;;;20.78;100.00;101550.81;5193638;22;71442;-74
2023/07/13 05:17:35;;;;;;;;;2.00;2.00;;;;;20.85;100.00;101552.44;5096925;27;45283;-73
2023/07/13 05:20:00;;;;;;;;;3.67;2.00;;;;;20.85;100.00;101544.38;5097068;27;45522;-73
2023/07/13 05:22:25;;;;;;;;;1.00;1.00;;;;;20.87;100.00;101547.03;5096486;27;59240;-74
2023/07/13 05:24:51;;;;;;;;;1.00;1.00;;;;;20.88;100.00;101551.50;5095969;27;68595;-74
2023/07/13 05:27:16;;;;;;;;;4.00;1.00;;;;;20.89;100.00;101556.84;5096455;27;66930;-73
2023/07/13 05:29:41;;;;;;;;;1.33;1.00;;;;;20.89;100.00;101558.63;5096474;27;62102;-74
2023/07/13 05:32:07;;;;;;;;;4.00;1.00;;;;;20.91;100.00;101563.03;5096311;27;45430;-75
2023/07/13 05:34:32;;;;;;;;;2.00;1.00;;;;;20.90;100.00;101555.91;5095898;27;72325;-74
2023/07/13 05:36:57;;;;;;;;;1.00;1.00;;;;;20.89;100.00;101551.47;5096911;27;55685;-73
2023/07/13 05:39:23;;;;;;;;;1.00;1.00;;;;;20.92;100.00;101561.25;5096542;27;50442;-74
2023/07/13 05:41:48;;;;;;;;;3.67;1.00;;;;;20.92;100.00;101562.13;5097413;27;46059;-74
2023/07/13 05:44:13;;;;;;;;;1.00;1.00;;;;;20.93;100.00;101571.97;5096330;27;45367;-74
2023/07/13 05:46:39;;;;;;;;;0.67;0.67;;;;;20.96;100.00;101580.88;5096234;27;65376;-74
2023/07/13 05:49:04;;;;;;;;;2.67;1.33;;;;;20.98;100.00;101574.53;5096155;27;52795;-74
2023/07/13 05:51:29;;;;;;;;;3.00;1.00;;;;;20.99;100.00;101575.44;5096516;27;57880;-74
2023/07/13 05:53:55;;;;;;;;;1.67;1.00;;;;;20.97;100.00;101569.22;5095731;27;70862;-75
2023/07/13 05:56:20;;;;;;;;;6.00;1.00;;;;;20.98;100.00;101571.84;5078673;27;45481;-74
2023/07/13 05:58:47;;;;;;;;;3.33;1.00;;;;;21.03;100.00;101571.75;5095410;27;62999;-74
2023/07/13 06:01:14;;;;;;;;;2.33;1.00;;;;;21.07;100.00;101577.03;5096836;27;45801;-73
2023/07/13 06:03:39;;;;;;;;;1.67;1.67;;;;;21.08;100.00;101572.56;5096330;27;46233;-74
2023/07/13 06:06:05;;;;;;;;;2.33;1.00;;;;;21.15;100.00;101574.22;5095517;27;56441;-74
2023/07/13 06:08:31;;;;;;;;;4.67;2.00;;;;;21.18;100.00;101577.69;5096654;27;45213;-74
2023/07/13 06:11:13;;;;;;;;;2.00;0.00;;;;;21.19;100.00;101584.84;5096993;27;45489;-75
2023/07/13 06:13:39;;;;;;;;;0.33;0.33;;;;;21.09;100.00;101582.38;5094359;27;46654;-75
2023/07/13 06:16:05;;;;;;;;;0.00;0.00;;;;;21.11;100.00;101583.25;5096519;27;45553;-77
2023/07/13 06:18:34;;;;;;;;;3.67;1.00;;;;;21.10;100.00;101594.91;5095840;27;45534;-76
2023/07/13 06:21:11;;;;;;;;;2.00;1.00;;;;;21.13;100.00;101597.50;5096086;27;45461;-76
2023/07/13 06:23:37;;;;;;;;;2.00;0.33;;;;;21.13;100.00;101600.19;5094029;27;46555;-78
2023/07/13 06:26:03;;;;;;;;;1.00;1.00;;;;;21.10;100.00;101597.59;5095177;27;45623;-77
2023/07/13 06:28:30;;;;;;;;;1.00;1.00;;;;;21.06;100.00;101598.56;5095177;27;45327;-75
2023/07/13 06:30:55;;;;;;;;;4.00;1.00;;;;;21.07;100.00;101606.59;5096537;27;45359;-75
2023/07/13 06:33:20;;;;;;;;;1.33;1.33;;;;;21.02;100.00;101588.78;5093604;27;68603;-77
2023/07/13 06:35:46;;;;;;;;;2.67;1.00;;;;;21.07;100.00;101609.28;5095234;27;45437;-77
2023/07/13 06:38:11;;;;;;;;;2.33;1.67;;;;;21.06;100.00;101615.56;5095017;27;63447;-76
2023/07/13 06:40:36;;;;;;;;;3.33;1.00;;;;;20.98;100.00;101611.25;5095045;27;60714;-77
2023/07/13 06:43:02;;;;;;;;;1.33;0.33;;;;;20.92;100.00;101617.63;5093795;27;67917;-77
2023/07/13 06:45:27;;;;;;;;;2.33;1.00;;;;;20.89;100.00;101610.53;5094592;27;45396;-78
2023/07/13 06:47:52;;;;;;;;;3.00;2.00;;;;;20.89;100.00;101612.34;5095819;27;45519;-78
2023/07/13 06:50:18;;;;;;;;;3.00;2.00;;;;;20.89;100.00;101606.97;5094543;27;60579;-77
2023/07/13 06:52:43;;;;;;;;;1.33;1.33;;;;;20.87;100.00;101608.78;5077352;27;46165;-76
2023/07/13 06:55:09;;;;;;;;;2.33;1.33;;;;;20.85;100.00;101611.50;5094588;27;55099;-77
2023/07/13 06:57:34;;;;;;;;;1.67;1.67;;;;;20.89;100.00;101601.59;5095926;27;45481;-76
2023/07/13 06:59:59;;;;;;;;;1.00;1.00;;;;;20.96;100.00;101596.97;5088298;27;63273;-77
2023/07/13 07:02:25;;;;;;;;;4.33;3.00;;;;;21.03;100.00;101601.31;5090758;27;66232;-76
2023/07/13 07:04:50;;;;;;;;;2.33;1.33;;;;;21.11;100.00;101602.03;5094406;27;45436;-75
2023/07/13 07:07:15;;;;;;;;;3.67;1.00;;;;;21.15;100.00;101612.69;5095244;27;45443;-76
2023/07/13 07:09:41;;;;;;;;;3.00;2.00;;;;;21.22;100.00;101615.25;5094493;27;56706;-76
2023/07/13 07:12:06;;;;;;;;;2.00;2.00;;;;;21.26;100.00;101619.66;5094153;27;69345;-77
2023/07/13 07:14:32;;;;;;;;;2.67;2.00;;;;;21.33;100.00;101624.00;5094448;27;45574;-76
2023/07/13 07:16:58;;;;;;;;;2.67;1.00;;;;;21.38;100.00;101617.63;5076968;27;45636;-76
2023/07/13 07:19:24;;;;;;;;;4.67;1.00;;;;;21.42;100.00;101618.44;5098143;27;45469;-77
2023/07/13 07:21:49;;;;;;;;;1.67;1.33;;;;;21.46;100.00;101622.81;5098437;27;46095;-76
2023/07/13 07:24:15;;;;;;;;;4.00;1.00;;;;;21.47;100.00;101621.91;5080280;27;45557;-75
2023/07/13 07:26:41;;;;;;;;;2.00;2.00;;;;;21.48;100.00;101622.81;5097399;27;45571;-77
2023/07/13 07:29:06;;;;;;;;;1.00;1.00;;;;;21.45;100.00;101621.94;5089320;27;45580;-77
2023/07/13 07:31:31;;;;;;;;;2.00;1.00;;;;;21.40;100.00;101631.00;5096441;27;65289;-77
2023/07/13 07:33:57;;;;;;;;;1.33;1.33;;;;;21.32;100.00;101622.25;5099159;27;45548;-77
2023/07/13 07:36:22;;;;;;;;;2.00;2.00;;;;;21.28;100.00;101642.00;5096728;27;55318;-76
2023/07/13 07:38:47;;;;;;;;;2.00;2.00;;;;;21.21;100.00;101640.34;5094594;27;50385;-77
2023/07/13 07:41:13;;;;;;;;;9.00;2.00;;;;;21.18;100.00;101630.53;5099170;27;46333;-76
2023/07/13 07:43:38;;;;;;;;;2.00;2.00;;;;;21.17;100.00;101628.78;5097419;27;45907;-76
2023/07/13 07:46:04;;;;;;;;;2.00;2.00;;;;;21.22;100.00;101637.63;5082204;27;53299;-77
2023/07/13 07:48:29;;;;;;;;;2.00;2.00;;;;;21.25;100.00;101634.84;5094858;27;45355;-76
2023/07/13 07:50:54;;;;;;;;;1.67;0.00;;;;;21.29;100.00;101639.25;5096625;27;47394;-77
2023/07/13 07:53:20;;;;;;;;;2.00;2.00;;;;;21.36;100.00;101640.97;5095535;27;45496;-75
2023/07/13 07:55:45;;;;;;;;;3.67;2.00;;;;;21.40;100.00;101641.75;5095003;27;47335;-77
2023/07/13 07:58:11;;;;;;;;;2.00;2.00;;;;;21.44;100.00;101643.47;5094597;27;45611;-77
2023/07/13 08:00:36;;;;;;;;;4.00;2.00;;;;;21.41;100.00;101639.06;5091624;27;63880;-76
2023/07/13 08:03:02;;;;;;;;;3.00;2.00;;;;;21.44;100.00;101636.28;5095481;27;45366;-77
2023/07/13 08:05:28;;;;;;;;;2.00;2.00;;;;;21.53;100.00;101639.72;5098470;27;45950;-76
2023/07/13 08:07:53;;;;;;;;;5.33;2.00;;;;;21.60;100.00;101641.34;5098190;27;45561;-77
2023/07/13 08:10:19;;;;;;;;;2.00;1.00;;;;;21.71;100.00;101639.31;5094614;27;47360;-79
2023/07/13 08:12:45;;;;;;;;;1.33;1.33;;;;;21.81;100.00;101645.34;5095694;27;45898;-77
2023/07/13 08:15:13;;;;;;;;;1.33;1.33;;;;;21.89;100.00;101635.28;5090231;27;63337;-77
2023/07/13 08:17:38;;;;;;;;;3.33;2.00;;;;;22.01;100.00;101642.22;5097656;27;45440;-76
2023/07/13 08:20:04;;;;;;;;;2.33;1.00;;;;;22.08;100.00;101644.72;5096970;27;46274;-78
2023/07/13 08:22:30;;;;;;;;;3.00;1.33;;;;;22.10;100.00;101648.28;5096703;27;45497;-78
2023/07/13 08:24:55;;;;;;;;;1.33;1.33;;;;;22.09;100.00;101650.97;5091229;27;45567;-78
2023/07/13 08:27:25;;;;;;;;;1.67;1.67;;;;;22.13;100.00;101652.72;5095894;27;45648;-78
2023/07/13 08:29:51;;;;;;;;;1.00;1.00;;;;;22.22;100.00;101656.06;5096259;27;47670;-78
2023/07/13 08:32:17;;;;;;;;;2.33;1.00;;;;;22.27;100.00;101638.94;5096783;27;45452;-76
2023/07/13 08:34:43;;;;;;;;;1.00;1.00;;;;;22.37;100.00;101635.97;5095234;27;45540;-84
2023/07/13 08:37:09;;;;;;;;;2.33;1.00;;;;;22.59;100.00;101633.63;5079703;27;45340;-80
2023/07/13 08:39:34;;;;;;;;;3.00;2.00;;;;;22.83;100.00;101636.56;5097274;27;47616;-77
2023/07/13 08:42:05;;;;;;;;;1.33;1.00;;;;;22.97;100.00;101634.44;5096396;27;45480;-79
2023/07/13 08:44:58;;;;;;;;;2.00;1.00;;;;;23.09;100.00;101635.91;5078201;27;45502;-80
2023/07/13 08:47:24;;;;;;;;;3.00;1.67;;;;;23.19;100.00;101642.78;5095923;27;45169;-77
2023/07/13 08:49:50;;;;;;;;;0.67;0.67;;;;;23.25;100.00;101634.53;5096399;27;46584;-77
2023/07/13 08:52:24;;;;;;;;;4.00;1.00;;;;;23.37;99.57;101638.69;5079499;27;45460;-77
2023/07/13 08:54:51;;;;;;;;;3.33;1.00;;;;;23.45;99.17;101640.22;5094491;27;45516;-77
2023/07/13 08:57:19;;;;;;;;;2.33;2.33;;;;;23.52;99.21;101639.09;5095429;27;45430;-78
2023/07/13 08:59:45;;;;;;;;;3.00;1.00;;;;;23.59;97.33;101638.91;5075027;27;47753;-77
2023/07/13 09:02:34;;;;;;;;;1.00;1.00;;;;;23.65;95.23;101638.75;5092526;27;45486;-77
2023/07/13 09:05:05;;;;;;;;;4.00;2.67;;;;;23.76;95.76;101642.03;5089162;27;45421;-77
2023/07/13 09:07:49;;;;;;;;;1.00;1.00;;;;;23.91;95.75;101646.94;5097970;27;45523;-77
2023/07/13 09:10:27;;;;;;;;;1.00;1.00;;;;;24.07;90.62;101641.03;5092478;27;46632;-77
2023/07/13 09:13:18;;;;;;;;;1.00;1.00;;;;;24.17;89.75;101645.22;5097103;27;46168;-77
2023/07/13 09:15:45;;;;;;;;;1.00;1.00;;;;;24.17;88.37;101642.50;5096936;27;45294;-77
2023/07/13 09:18:26;;;;;;;;;3.67;1.00;;;;;24.08;88.05;101642.84;5078667;27;45494;-77
2023/07/13 09:20:55;;;;;;;;;3.00;1.33;;;;;23.92;88.33;101635.22;5092449;27;47576;-77
2023/07/13 09:23:23;;;;;;;;;1.00;1.00;;;;;23.84;89.06;101647.19;5097368;27;45438;-76
2023/07/13 09:25:55;;;;;;;;;3.67;1.00;;;;;23.76;89.18;101650.13;5096927;27;45406;-76
2023/07/13 09:28:22;;;;;;;;;3.67;1.00;;;;;23.68;88.60;101647.66;5097152;27;45552;-77
2023/07/13 09:31:04;;;;;;;;;0.67;0.67;;;;;23.62;88.53;101649.63;5096996;27;47536;-77
2023/07/13 09:33:31;;;;;;;;;1.00;1.00;;;;;23.55;88.79;101650.75;5076733;27;45470;-77
2023/07/13 09:35:58;;;;;;;;;2.67;0.33;;;;;23.49;89.44;101651.81;5094520;27;45628;-77
2023/07/13 09:38:25;;;;;;;;;3.00;1.00;;;;;23.44;89.42;101651.06;5096860;27;45580;-77
2023/07/13 09:41:03;;;;;;;;;0.33;0.33;;;;;23.39;90.32;101661.09;5077442;27;46774;-77
2023/07/13 09:43:29;;;;;;;;;3.00;2.00;;;;;23.26;90.05;101649.75;5095998;27;45222;-76
2023/07/13 09:45:55;;;;;;;;;3.00;0.00;;;;;23.21;90.61;101644.50;5096464;27;45491;-77
2023/07/13 09:48:21;;;;;;;;;5.33;1.67;;;;;23.23;90.65;101661.53;5097043;27;45325;-79
2023/07/13 09:50:47;;;;;;;;;4.00;1.33;;;;;23.27;90.89;101654.22;5090321;27;46242;-79
2023/07/13 09:53:17;;;;;;;;;2.00;2.00;;;;;23.39;91.19;101659.28;5091919;27;45505;-77
2023/07/13 09:55:45;;;;;;;;;3.00;1.00;;;;;23.50;91.35;101659.84;5094851;27;45318;-77
2023/07/13 09:58:14;;;;;;;;;1.00;1.00;;;;;23.69;91.33;101662.88;5096815;27;45383;-77
2023/07/13 10:00:41;;;;;;;;;2.33;2.33;;;;;23.87;90.77;101666.88;5093717;27;47798;-77
2023/07/13 10:04:00;;;;;;;;;2.33;2.00;;;;;24.07;89.75;101674.31;5099611;27;45434;-76
2023/07/13 10:06:28;;;;;;;;;2.00;2.00;;;;;24.17;88.78;101669.50;5049655;28;45518;-77
2023/07/13 10:08:56;;;;;;;;;1.33;1.00;;;;;24.20;88.84;101661.31;5093278;27;45549;-77
2023/07/13 10:11:23;;;;;;;;;5.00;2.00;;;;;24.14;88.04;101659.72;5096509;27;47972;-76
2023/07/13 10:14:02;;;;;;;;;2.00;1.67;;;;;24.01;88.63;101670.00;5096637;27;45383;-77
2023/07/13 10:16:32;;;;;;;;;2.67;2.00;;;;;23.93;88.36;101665.78;5091852;27;45315;-77
2023/07/13 10:19:15;;;;;;;;;3.00;2.00;;;;;23.87;88.33;101677.66;5096853;27;45453;-77
2023/07/13 10:22:03;;;;;;;;;1.33;1.33;;;;;23.81;88.82;101679.63;5102886;27;47635;-76
2023/07/13 10:24:33;;;;;;;;;1.00;1.00;;;;;23.73;88.73;101678.06;5096233;27;45275;-78
2023/07/13 10:27:04;;;;;;;;;3.00;1.33;;;;;23.68;88.69;101681.81;5078322;27;45519;-76
2023/07/13 10:29:36;;;;;;;;;1.00;1.00;;;;;23.59;88.92;101687.44;5096177;27;45685;-76
2023/07/13 10:32:02;;;;;;;;;3.33;1.00;;;;;23.53;88.93;101691.22;5077673;27;46707;-77
2023/07/13 10:34:27;;;;;;;;;1.00;1.00;;;;;23.58;89.70;101688.38;5096175;27;45369;-77
2023/07/13 10:36:53;;;;;;;;;2.00;2.00;;;;;23.74;90.08;101681.63;5095430;27;53864;-76
2023/07/13 10:39:22;;;;;;;;;4.33;2.00;;;;;23.89;89.09;101691.06;5095815;27;47477;-78
2023/07/13 10:41:51;;;;;;;;;1.67;1.00;;;;;24.02;87.71;101696.06;5081902;27;46588;-77
2023/07/13 10:44:21;;;;;;;;;2.67;2.00;;;;;24.09;87.94;101693.16;5095938;27;45444;-76
2023/07/13 10:46:47;;;;;;;;;2.67;1.67;;;;;24.15;87.35;101692.97;5077687;27;45337;-77
2023/07/13 10:49:12;;;;;;;;;2.33;1.00;;;;;24.14;86.40;101696.59;5096058;27;45311;-76
2023/07/13 10:51:39;;;;;;;;;2.33;1.00;;;;;24.06;86.83;101699.53;5078115;27;45880;-77
2023/07/13 10:54:37;;;;;;;;;0.33;0.33;;;;;23.97;86.83;101695.31;5099542;27;45209;-77
2023/07/13 10:57:18;;;;;;;;;0.67;0.67;;;;;23.92;86.48;101697.28;5099938;27;45496;-77
2023/07/13 11:00:08;;;;;;;;;4.00;1.00;;;;;23.85;86.97;101690.28;5099783;27;45209;-76
2023/07/13 11:02:34;;;;;;;;;1.00;1.00;;;;;23.82;87.18;101694.91;5097602;27;47746;-77
2023/07/13 11:05:17;;;;;;;;;4.67;1.67;;;;;23.82;87.36;101692.22;5098968;27;65719;-77
2023/07/13 11:08:14;;;;;;;;;3.00;2.00;;;;;23.91;87.65;101689.22;5099441;27;45576;-76
2023/07/13 11:10:58;;;;;;;;;1.00;1.00;;;;;24.10;87.89;101693.13;5087885;27;45620;-77
2023/07/13 11:13:47;;;;;;;;;2.00;2.00;;;;;24.33;86.70;101686.97;5080984;27;46307;-77
2023/07/13 11:16:15;;;;;;;;;2.33;1.00;;;;;24.55;86.19;101676.38;5098459;27;45344;-77
2023/07/13 11:18:45;;;;;;;;;6.00;1.00;;;;;24.78;85.88;101679.19;5089003;27;45426;-77
2023/07/13 11:21:18;;;;;;;;;1.33;1.00;;;;;24.97;83.65;101678.53;5099456;27;45347;-77
2023/07/13 11:23:51;;;;;;;;;1.00;1.00;;;;;25.12;83.55;101669.91;5080238;27;46530;-76